ADDS METAR Data INFO
IDs: Format: Raw Decoded Include TAF

Data at: 0453 UTC 20 Apr 2018

KBNA 200353Z 01006KT 10SM CLR 06/00 A3036 RMK AO2 SLP281 T00560000
KBNA 200253Z 35006KT 10SM CLR 07/00 A3036 RMK AO2 SLP283 T00720000 51013
KBNA 200153Z 35006KT 10SM CLR 08/00 A3036 RMK AO2 SLP282 T00780000
KBNA 200053Z 35007KT 10SM CLR 08/M01 A3034 RMK AO2 SLP275 T00831006
KBNA 192353Z 02011KT 10SM CLR 09/M01 A3032 RMK AO2 SLP269 T00941006 10122 20094 52005
KBNA 192253Z 36011KT 10SM BKN044 11/00 A3032 RMK AO2 SLP269 T01060000
KBNA 192153Z 36014G20KT 10SM BKN047 11/M01 A3031 RMK AO2 SLP265 T01061006
KBNA 192053Z 03010G19KT 10SM BKN047 11/M01 A3031 RMK AO2 SLP264 T01111011 50003
KBNA 191953Z 35010G17KT 10SM SCT047 12/M01 A3032 RMK AO2 SLP265 T01171006
KBNA 191853Z 01013G21KT 10SM BKN047 12/M01 A3031 RMK AO2 SLP265 T01171011
KBNA 191753Z 34007G16KT 10SM BKN044 09/M02 A3030 RMK AO2 SLP260 T00941022 10100 20056 51015
KBNA 191653Z 33011G17KT 10SM BKN040 09/M02 A3030 RMK AO2 SLP258 T00891022
KBNA 191553Z 34011G21KT 10SM BKN039 08/M02 A3028 RMK AO2 SLP254 T00781017
KBNA 191453Z 35011G18KT 10SM OVC039 06/M03 A3026 RMK AO2 SLP244 T00611028 53036
KBNA 191353Z 32010KT 10SM OVC039 06/M03 A3022 RMK AO2 SLP232 T00611033
KBNA 191253Z 32014KT 10SM BKN043 06/M03 A3018 RMK AO2 SLP219 T00611028
KBNA 191153Z 33013G21KT 10SM BKN039 BKN048 06/M03 A3015 RMK AO2 SLP207 70010 T00611028 10111 20061 53034
KBNA 191053Z 35012KT 10SM OVC037 07/M01 A3011 RMK AO2 SLP192 T00721006
KBNA 190953Z 34012G17KT 10SM BKN038 OVC045 08/01 A3008 RMK AO2 SLP182 T00780011
KBNA 190853Z 35013KT 10SM FEW034 BKN043 09/03 A3005 RMK AO2 SLP172 T00890028 53015
KBNA 190753Z 32007KT 10SM SCT045 09/02 A3003 RMK AO2 SLP165 T00940022
KBNA 190653Z 34007KT 10SM CLR 10/03 A3002 RMK AO2 SLP161 T01000028
KBNA 190553Z 34009KT 10SM FEW250 11/04 A3000 RMK AO2 SLP156 60010 T01110039 10222 20111 402390111 53045
KBNA 190453Z 34014G21KT 10SM SCT250 13/06 A2997 RMK AO2 PK WND 35035/0421 WSHFT 0409 SLP144 T01330056
KBNA 190429Z 35016G35KT 10SM FEW090 14/06 A2994 RMK AO2 PK WND 35035/0421 WSHFT 0409 PRESRR T01390061
KBNA 190353Z 28010KT 10SM BKN075 OVC095 18/13 A2989 RMK AO2 SLP117 T01780128
KBNA 190253Z 22004KT 10SM OVC070 18/16 A2987 RMK AO2 RAB0155E32 SLP109 CB DSNT E P0010 60010 T01780156 53018
KBNA 190232Z 22004KT 10SM FEW023 BKN043 OVC065 17/14 A2986 RMK AO2 RAB0155E32 CB DSNT NE-SW P0010 T01720139
KBNA 190223Z 23010G19KT 2SM RA BR FEW023 BKN041CB OVC055 18/16 A2986 RMK AO2 RAB0155 CB OHD MOV E P0009 T01780156
KBNA 190153Z 21013G22KT 10SM BKN060 21/13 A2983 RMK AO2 SLP096 T02060133
KBNA 190053Z 21013G21KT 190V270 10SM FEW075 21/13 A2982 RMK AO2 SLP094 T02060133
KBNA 182353Z 20018G24KT 10SM FEW040 22/13 A2981 RMK AO2 SLP092 T02220128 10239 20222 58001
KBNA 182253Z 24012G22KT 10SM SCT039 23/13 A2982 RMK AO2 SLP093 T02280128
KBNA 182153Z 21012G22KT 10SM BKN040 23/13 A2982 RMK AO2 PK WND 26027/2054 SLP091 T02280133
KBNA 182053Z 23014G24KT 10SM BKN040 23/13 A2982 RMK AO2 SLP092 T02330133 58002
KBNA 181953Z 21011G19KT 10SM BKN040 22/13 A2982 RMK AO2 PK WND 21027/1927 SLP094 T02220133
KBNA 181853Z 22014G22KT 10SM OVC039 22/13 A2983 RMK AO2 SLP098 T02220128
KBNA 181753Z 21017G22KT 10SM OVC042 23/13 A2982 RMK AO2 PK WND 19026/1743 SLP094 T02280128 10239 20133 56005